sensor_id;sensor_type;location;lat;lon;timestamp;P1;durP1;ratioP1;P2;durP2;ratioP2
50495;SDS011;38806;51.554;5.704;2022-10-31T00:01:31;21.80;;;12.63;;
50495;SDS011;38806;51.554;5.704;2022-10-31T00:03:35;21.73;;;14.80;;
50495;SDS011;38806;51.554;5.704;2022-10-31T00:05:35;22.13;;;13.98;;
50495;SDS011;38806;51.554;5.704;2022-10-31T00:07:39;31.48;;;15.57;;
50495;SDS011;38806;51.554;5.704;2022-10-31T00:09:40;18.95;;;14.13;;
50495;SDS011;38806;51.554;5.704;2022-10-31T00:11:40;23.55;;;14.25;;
50495;SDS011;38806;51.554;5.704;2022-10-31T00:13:40;19.02;;;12.80;;
50495;SDS011;38806;51.554;5.704;2022-10-31T00:15:41;19.88;;;12.77;;
50495;SDS011;38806;51.554;5.704;2022-10-31T00:17:41;19.52;;;13.43;;
50495;SDS011;38806;51.554;5.704;2022-10-31T00:19:41;26.98;;;15.77;;
50495;SDS011;38806;51.554;5.704;2022-10-31T00:21:42;22.33;;;13.50;;
50495;SDS011;38806;51.554;5.704;2022-10-31T00:23:42;23.67;;;13.63;;
50495;SDS011;38806;51.554;5.704;2022-10-31T00:25:42;23.08;;;13.35;;
50495;SDS011;38806;51.554;5.704;2022-10-31T00:27:42;19.95;;;12.75;;
50495;SDS011;38806;51.554;5.704;2022-10-31T00:29:43;20.30;;;12.75;;
50495;SDS011;38806;51.554;5.704;2022-10-31T00:31:43;25.58;;;13.68;;
50495;SDS011;38806;51.554;5.704;2022-10-31T00:33:43;24.55;;;16.33;;
50495;SDS011;38806;51.554;5.704;2022-10-31T00:35:49;18.90;;;12.40;;
50495;SDS011;38806;51.554;5.704;2022-10-31T00:37:50;20.50;;;12.70;;
50495;SDS011;38806;51.554;5.704;2022-10-31T00:39:51;29.25;;;14.98;;
50495;SDS011;38806;51.554;5.704;2022-10-31T00:41:52;23.20;;;13.57;;
50495;SDS011;38806;51.554;5.704;2022-10-31T00:43:52;20.98;;;13.07;;
50495;SDS011;38806;51.554;5.704;2022-10-31T00:45:52;20.25;;;14.52;;
50495;SDS011;38806;51.554;5.704;2022-10-31T00:47:52;25.75;;;16.40;;
50495;SDS011;38806;51.554;5.704;2022-10-31T00:49:53;23.40;;;14.60;;
50495;SDS011;38806;51.554;5.704;2022-10-31T00:51:53;27.00;;;15.95;;
50495;SDS011;38806;51.554;5.704;2022-10-31T00:53:53;29.90;;;18.42;;
50495;SDS011;38806;51.554;5.704;2022-10-31T00:55:53;27.83;;;16.75;;
50495;SDS011;38806;51.554;5.704;2022-10-31T00:57:54;26.92;;;16.77;;
50495;SDS011;38806;51.554;5.704;2022-10-31T00:59:54;25.80;;;16.67;;
50495;SDS011;38806;51.554;5.704;2022-10-31T01:01:54;25.48;;;16.77;;
50495;SDS011;38806;51.554;5.704;2022-10-31T01:03:55;23.45;;;16.23;;
50495;SDS011;38806;51.554;5.704;2022-10-31T01:07:59;25.63;;;16.80;;
50495;SDS011;38806;51.554;5.704;2022-10-31T01:09:59;21.88;;;13.90;;
50495;SDS011;38806;51.554;5.704;2022-10-31T01:12:00;19.35;;;14.05;;
50495;SDS011;38806;51.554;5.704;2022-10-31T01:14:00;21.83;;;14.57;;
50495;SDS011;38806;51.554;5.704;2022-10-31T01:16:01;21.85;;;12.10;;
50495;SDS011;38806;51.554;5.704;2022-10-31T01:18:02;24.42;;;13.57;;
50495;SDS011;38806;51.554;5.704;2022-10-31T01:20:03;22.05;;;13.23;;
50495;SDS011;38806;51.554;5.704;2022-10-31T01:22:04;25.90;;;14.55;;
50495;SDS011;38806;51.554;5.704;2022-10-31T01:24:05;20.55;;;13.55;;
50495;SDS011;38806;51.554;5.704;2022-10-31T01:26:07;24.88;;;14.45;;
50495;SDS011;38806;51.554;5.704;2022-10-31T01:28:11;32.38;;;18.52;;
50495;SDS011;38806;51.554;5.704;2022-10-31T01:30:11;32.55;;;18.80;;
50495;SDS011;38806;51.554;5.704;2022-10-31T01:32:12;29.08;;;18.50;;
50495;SDS011;38806;51.554;5.704;2022-10-31T01:34:13;31.38;;;21.13;;
50495;SDS011;38806;51.554;5.704;2022-10-31T01:38:23;29.05;;;16.58;;
50495;SDS011;38806;51.554;5.704;2022-10-31T01:40:24;23.95;;;16.10;;
50495;SDS011;38806;51.554;5.704;2022-10-31T01:42:24;34.03;;;19.90;;
50495;SDS011;38806;51.554;5.704;2022-10-31T01:46:39;25.52;;;16.25;;
50495;SDS011;38806;51.554;5.704;2022-10-31T01:48:43;27.88;;;16.92;;
50495;SDS011;38806;51.554;5.704;2022-10-31T01:50:44;30.55;;;18.00;;
50495;SDS011;38806;51.554;5.704;2022-10-31T01:52:48;23.58;;;15.15;;
50495;SDS011;38806;51.554;5.704;2022-10-31T01:55:08;29.77;;;16.95;;
50495;SDS011;38806;51.554;5.704;2022-10-31T01:57:12;28.42;;;14.88;;
50495;SDS011;38806;51.554;5.704;2022-10-31T01:59:14;21.55;;;13.52;;
50495;SDS011;38806;51.554;5.704;2022-10-31T02:01:19;19.80;;;12.48;;
50495;SDS011;38806;51.554;5.704;2022-10-31T02:03:19;19.50;;;13.55;;
50495;SDS011;38806;51.554;5.704;2022-10-31T02:05:21;23.92;;;13.32;;
50495;SDS011;38806;51.554;5.704;2022-10-31T02:07:25;28.48;;;18.27;;
50495;SDS011;38806;51.554;5.704;2022-10-31T02:09:31;24.00;;;14.90;;
50495;SDS011;38806;51.554;5.704;2022-10-31T02:11:32;20.85;;;14.07;;
50495;SDS011;38806;51.554;5.704;2022-10-31T02:13:35;22.70;;;15.27;;
50495;SDS011;38806;51.554;5.704;2022-10-31T02:15:36;33.03;;;17.65;;
50495;SDS011;38806;51.554;5.704;2022-10-31T02:17:38;28.77;;;16.58;;
50495;SDS011;38806;51.554;5.704;2022-10-31T02:19:46;31.85;;;15.70;;
50495;SDS011;38806;51.554;5.704;2022-10-31T02:21:58;23.25;;;15.38;;
50495;SDS011;38806;51.554;5.704;2022-10-31T02:26:45;25.95;;;15.55;;
50495;SDS011;38806;51.554;5.704;2022-10-31T02:33:44;29.02;;;17.77;;
50495;SDS011;38806;51.554;5.704;2022-10-31T02:35:53;28.60;;;17.75;;
50495;SDS011;38806;51.554;5.704;2022-10-31T02:41:00;22.88;;;15.52;;
50495;SDS011;38806;51.554;5.704;2022-10-31T02:43:27;25.80;;;15.60;;
50495;SDS011;38806;51.554;5.704;2022-10-31T02:45:54;26.92;;;16.77;;
50495;SDS011;38806;51.554;5.704;2022-10-31T02:48:03;34.03;;;15.48;;
50495;SDS011;38806;51.554;5.704;2022-10-31T02:50:29;26.48;;;16.05;;
50495;SDS011;38806;51.554;5.704;2022-10-31T02:52:34;29.75;;;16.17;;
50495;SDS011;38806;51.554;5.704;2022-10-31T02:54:35;22.92;;;14.55;;
50495;SDS011;38806;51.554;5.704;2022-10-31T02:56:35;24.88;;;14.68;;
50495;SDS011;38806;51.554;5.704;2022-10-31T02:58:40;25.63;;;14.95;;
50495;SDS011;38806;51.554;5.704;2022-10-31T03:05:32;22.95;;;15.98;;
50495;SDS011;38806;51.554;5.704;2022-10-31T03:09:59;21.67;;;15.27;;
50495;SDS011;38806;51.554;5.704;2022-10-31T03:12:10;28.15;;;17.50;;
50495;SDS011;38806;51.554;5.704;2022-10-31T03:14:18;33.45;;;18.13;;
50495;SDS011;38806;51.554;5.704;2022-10-31T03:16:25;25.08;;;16.42;;
50495;SDS011;38806;51.554;5.704;2022-10-31T03:18:43;29.50;;;18.90;;
50495;SDS011;38806;51.554;5.704;2022-10-31T03:20:52;24.75;;;16.58;;
50495;SDS011;38806;51.554;5.704;2022-10-31T03:22:55;30.40;;;16.70;;
50495;SDS011;38806;51.554;5.704;2022-10-31T03:24:58;30.52;;;16.77;;
50495;SDS011;38806;51.554;5.704;2022-10-31T03:27:01;28.73;;;17.52;;
50495;SDS011;38806;51.554;5.704;2022-10-31T03:29:07;30.73;;;17.08;;
50495;SDS011;38806;51.554;5.704;2022-10-31T03:31:10;30.95;;;18.10;;
50495;SDS011;38806;51.554;5.704;2022-10-31T03:33:17;34.28;;;18.90;;
50495;SDS011;38806;51.554;5.704;2022-10-31T03:35:22;22.40;;;15.52;;
50495;SDS011;38806;51.554;5.704;2022-10-31T03:37:24;25.25;;;15.88;;
50495;SDS011;38806;51.554;5.704;2022-10-31T03:39:27;25.10;;;14.73;;
50495;SDS011;38806;51.554;5.704;2022-10-31T03:41:30;32.70;;;17.67;;
50495;SDS011;38806;51.554;5.704;2022-10-31T03:43:36;26.42;;;15.75;;
50495;SDS011;38806;51.554;5.704;2022-10-31T03:45:41;28.83;;;15.43;;
50495;SDS011;38806;51.554;5.704;2022-10-31T03:47:44;20.30;;;13.43;;
50495;SDS011;38806;51.554;5.704;2022-10-31T03:49:45;24.48;;;14.10;;
50495;SDS011;38806;51.554;5.704;2022-10-31T03:58:34;20.30;;;13.77;;
50495;SDS011;38806;51.554;5.704;2022-10-31T04:00:40;27.52;;;15.88;;
50495;SDS011;38806;51.554;5.704;2022-10-31T04:02:50;24.35;;;16.08;;
50495;SDS011;38806;51.554;5.704;2022-10-31T04:04:57;20.95;;;14.38;;
50495;SDS011;38806;51.554;5.704;2022-10-31T04:06:59;25.40;;;16.15;;
50495;SDS011;38806;51.554;5.704;2022-10-31T04:09:02;23.70;;;15.68;;
50495;SDS011;38806;51.554;5.704;2022-10-31T04:11:04;20.02;;;13.05;;
50495;SDS011;38806;51.554;5.704;2022-10-31T04:13:07;23.80;;;15.25;;
50495;SDS011;38806;51.554;5.704;2022-10-31T04:15:11;25.35;;;15.40;;
50495;SDS011;38806;51.554;5.704;2022-10-31T04:17:13;23.00;;;14.77;;
50495;SDS011;38806;51.554;5.704;2022-10-31T04:19:17;23.98;;;15.38;;
50495;SDS011;38806;51.554;5.704;2022-10-31T04:21:17;23.20;;;15.77;;
50495;SDS011;38806;51.554;5.704;2022-10-31T04:23:22;30.38;;;16.60;;
50495;SDS011;38806;51.554;5.704;2022-10-31T04:25:25;26.67;;;15.60;;
50495;SDS011;38806;51.554;5.704;2022-10-31T04:27:25;27.55;;;15.98;;
50495;SDS011;38806;51.554;5.704;2022-10-31T04:29:25;26.60;;;16.83;;
50495;SDS011;38806;51.554;5.704;2022-10-31T04:31:25;25.92;;;15.65;;
50495;SDS011;38806;51.554;5.704;2022-10-31T04:33:26;25.98;;;15.38;;
50495;SDS011;38806;51.554;5.704;2022-10-31T04:35:26;25.30;;;16.55;;
50495;SDS011;38806;51.554;5.704;2022-10-31T04:37:26;28.35;;;17.88;;
50495;SDS011;38806;51.554;5.704;2022-10-31T04:39:27;26.15;;;17.05;;
50495;SDS011;38806;51.554;5.704;2022-10-31T04:41:27;28.52;;;19.83;;
50495;SDS011;38806;51.554;5.704;2022-10-31T04:43:27;30.13;;;21.02;;
50495;SDS011;38806;51.554;5.704;2022-10-31T04:45:28;29.83;;;20.27;;
50495;SDS011;38806;51.554;5.704;2022-10-31T04:47:30;28.45;;;19.35;;
50495;SDS011;38806;51.554;5.704;2022-10-31T04:49:31;28.42;;;17.23;;
50495;SDS011;38806;51.554;5.704;2022-10-31T04:51:31;25.48;;;18.42;;
50495;SDS011;38806;51.554;5.704;2022-10-31T04:53:31;27.85;;;16.70;;
50495;SDS011;38806;51.554;5.704;2022-10-31T04:55:32;23.58;;;15.45;;
50495;SDS011;38806;51.554;5.704;2022-10-31T04:57:32;27.27;;;17.85;;
50495;SDS011;38806;51.554;5.704;2022-10-31T04:59:32;23.88;;;15.90;;
50495;SDS011;38806;51.554;5.704;2022-10-31T05:01:33;27.60;;;17.70;;
50495;SDS011;38806;51.554;5.704;2022-10-31T05:03:33;28.10;;;15.75;;
50495;SDS011;38806;51.554;5.704;2022-10-31T05:05:33;23.48;;;14.60;;
50495;SDS011;38806;51.554;5.704;2022-10-31T05:07:37;26.20;;;16.50;;
50495;SDS011;38806;51.554;5.704;2022-10-31T05:09:39;25.02;;;16.23;;
50495;SDS011;38806;51.554;5.704;2022-10-31T05:11:39;30.10;;;20.48;;
50495;SDS011;38806;51.554;5.704;2022-10-31T05:13:40;33.78;;;20.60;;
50495;SDS011;38806;51.554;5.704;2022-10-31T05:15:40;37.42;;;21.38;;
50495;SDS011;38806;51.554;5.704;2022-10-31T05:17:40;33.17;;;21.00;;
50495;SDS011;38806;51.554;5.704;2022-10-31T05:19:41;33.63;;;20.95;;
50495;SDS011;38806;51.554;5.704;2022-10-31T05:21:42;37.60;;;22.95;;
50495;SDS011;38806;51.554;5.704;2022-10-31T05:23:42;34.20;;;21.02;;
50495;SDS011;38806;51.554;5.704;2022-10-31T05:25:42;30.00;;;18.45;;
50495;SDS011;38806;51.554;5.704;2022-10-31T05:27:43;27.17;;;19.02;;
50495;SDS011;38806;51.554;5.704;2022-10-31T05:29:45;28.40;;;18.30;;
50495;SDS011;38806;51.554;5.704;2022-10-31T05:31:45;27.08;;;17.35;;
50495;SDS011;38806;51.554;5.704;2022-10-31T05:33:45;28.65;;;18.38;;
50495;SDS011;38806;51.554;5.704;2022-10-31T05:35:46;28.73;;;20.58;;
50495;SDS011;38806;51.554;5.704;2022-10-31T05:37:46;29.13;;;18.38;;
50495;SDS011;38806;51.554;5.704;2022-10-31T05:39:46;25.45;;;20.02;;
50495;SDS011;38806;51.554;5.704;2022-10-31T05:41:47;29.70;;;19.80;;
50495;SDS011;38806;51.554;5.704;2022-10-31T05:43:47;28.02;;;20.40;;
50495;SDS011;38806;51.554;5.704;2022-10-31T05:45:51;33.60;;;20.55;;
50495;SDS011;38806;51.554;5.704;2022-10-31T05:47:56;31.80;;;20.00;;
50495;SDS011;38806;51.554;5.704;2022-10-31T05:49:57;29.23;;;17.38;;
50495;SDS011;38806;51.554;5.704;2022-10-31T05:51:58;26.98;;;17.92;;
50495;SDS011;38806;51.554;5.704;2022-10-31T05:53:58;34.33;;;21.23;;
50495;SDS011;38806;51.554;5.704;2022-10-31T05:55:58;33.95;;;20.30;;
50495;SDS011;38806;51.554;5.704;2022-10-31T05:57:59;33.40;;;20.17;;
50495;SDS011;38806;51.554;5.704;2022-10-31T05:59:59;35.72;;;20.60;;
50495;SDS011;38806;51.554;5.704;2022-10-31T06:01:59;31.40;;;19.85;;
50495;SDS011;38806;51.554;5.704;2022-10-31T06:04:00;30.52;;;19.17;;
50495;SDS011;38806;51.554;5.704;2022-10-31T06:06:00;33.10;;;19.42;;
50495;SDS011;38806;51.554;5.704;2022-10-31T06:08:00;27.23;;;18.13;;
50495;SDS011;38806;51.554;5.704;2022-10-31T06:10:01;30.67;;;17.65;;
50495;SDS011;38806;51.554;5.704;2022-10-31T06:12:03;36.40;;;19.77;;
50495;SDS011;38806;51.554;5.704;2022-10-31T06:14:04;30.10;;;20.52;;
50495;SDS011;38806;51.554;5.704;2022-10-31T06:16:05;30.80;;;20.00;;
50495;SDS011;38806;51.554;5.704;2022-10-31T06:18:05;33.47;;;20.27;;
50495;SDS011;38806;51.554;5.704;2022-10-31T06:20:06;32.30;;;18.75;;
50495;SDS011;38806;51.554;5.704;2022-10-31T06:22:07;31.88;;;20.52;;
50495;SDS011;38806;51.554;5.704;2022-10-31T06:24:07;32.67;;;20.25;;
50495;SDS011;38806;51.554;5.704;2022-10-31T06:26:08;33.92;;;19.48;;
50495;SDS011;38806;51.554;5.704;2022-10-31T06:28:08;41.78;;;23.05;;
50495;SDS011;38806;51.554;5.704;2022-10-31T06:30:08;53.70;;;29.35;;
50495;SDS011;38806;51.554;5.704;2022-10-31T06:32:10;44.70;;;23.05;;
50495;SDS011;38806;51.554;5.704;2022-10-31T06:34:10;43.83;;;24.85;;
50495;SDS011;38806;51.554;5.704;2022-10-31T06:36:11;43.20;;;24.02;;
50495;SDS011;38806;51.554;5.704;2022-10-31T06:38:11;40.67;;;23.15;;
50495;SDS011;38806;51.554;5.704;2022-10-31T06:40:11;39.75;;;23.88;;
50495;SDS011;38806;51.554;5.704;2022-10-31T06:42:11;33.63;;;21.30;;
50495;SDS011;38806;51.554;5.704;2022-10-31T06:44:12;38.90;;;23.17;;
50495;SDS011;38806;51.554;5.704;2022-10-31T06:46:12;33.33;;;21.77;;
50495;SDS011;38806;51.554;5.704;2022-10-31T06:48:12;32.85;;;22.67;;
50495;SDS011;38806;51.554;5.704;2022-10-31T06:50:13;37.45;;;23.33;;
50495;SDS011;38806;51.554;5.704;2022-10-31T06:52:13;41.45;;;23.45;;
50495;SDS011;38806;51.554;5.704;2022-10-31T06:54:13;35.33;;;23.98;;
50495;SDS011;38806;51.554;5.704;2022-10-31T06:56:14;33.22;;;19.52;;
50495;SDS011;38806;51.554;5.704;2022-10-31T06:58:14;39.80;;;24.33;;
50495;SDS011;38806;51.554;5.704;2022-10-31T07:00:15;33.97;;;22.27;;
50495;SDS011;38806;51.554;5.704;2022-10-31T07:02:15;32.95;;;22.83;;
50495;SDS011;38806;51.554;5.704;2022-10-31T07:04:16;35.78;;;21.58;;
50495;SDS011;38806;51.554;5.704;2022-10-31T07:06:16;32.38;;;19.40;;
50495;SDS011;38806;51.554;5.704;2022-10-31T07:08:16;30.63;;;20.33;;
50495;SDS011;38806;51.554;5.704;2022-10-31T07:10:16;41.47;;;23.17;;
50495;SDS011;38806;51.554;5.704;2022-10-31T07:12:17;38.00;;;21.70;;
50495;SDS011;38806;51.554;5.704;2022-10-31T07:14:17;39.38;;;23.90;;
50495;SDS011;38806;51.554;5.704;2022-10-31T07:16:17;30.30;;;19.92;;
50495;SDS011;38806;51.554;5.704;2022-10-31T07:18:17;33.75;;;20.50;;
50495;SDS011;38806;51.554;5.704;2022-10-31T07:20:18;41.03;;;21.52;;
50495;SDS011;38806;51.554;5.704;2022-10-31T07:22:19;28.23;;;19.80;;
50495;SDS011;38806;51.554;5.704;2022-10-31T07:24:19;32.13;;;22.85;;
50495;SDS011;38806;51.554;5.704;2022-10-31T07:26:19;33.88;;;23.00;;
50495;SDS011;38806;51.554;5.704;2022-10-31T07:28:20;34.90;;;23.08;;
50495;SDS011;38806;51.554;5.704;2022-10-31T07:30:20;33.53;;;22.35;;
50495;SDS011;38806;51.554;5.704;2022-10-31T07:32:20;34.70;;;24.27;;
50495;SDS011;38806;51.554;5.704;2022-10-31T07:34:21;38.00;;;24.70;;
50495;SDS011;38806;51.554;5.704;2022-10-31T07:36:21;55.72;;;31.15;;
50495;SDS011;38806;51.554;5.704;2022-10-31T07:38:21;37.90;;;25.33;;
50495;SDS011;38806;51.554;5.704;2022-10-31T07:40:22;40.80;;;24.63;;
50495;SDS011;38806;51.554;5.704;2022-10-31T07:42:23;38.92;;;25.23;;
50495;SDS011;38806;51.554;5.704;2022-10-31T07:44:23;34.47;;;23.52;;
50495;SDS011;38806;51.554;5.704;2022-10-31T07:46:23;37.67;;;24.50;;
50495;SDS011;38806;51.554;5.704;2022-10-31T07:48:23;40.33;;;26.20;;
50495;SDS011;38806;51.554;5.704;2022-10-31T07:50:29;40.30;;;25.35;;
50495;SDS011;38806;51.554;5.704;2022-10-31T07:52:30;40.03;;;28.67;;
50495;SDS011;38806;51.554;5.704;2022-10-31T07:54:30;38.42;;;25.02;;
50495;SDS011;38806;51.554;5.704;2022-10-31T07:56:30;34.33;;;24.20;;
50495;SDS011;38806;51.554;5.704;2022-10-31T07:58:31;41.88;;;27.23;;
50495;SDS011;38806;51.554;5.704;2022-10-31T08:00:32;45.05;;;29.08;;
50495;SDS011;38806;51.554;5.704;2022-10-31T08:02:33;63.40;;;37.38;;
50495;SDS011;38806;51.554;5.704;2022-10-31T08:04:34;51.42;;;31.63;;
50495;SDS011;38806;51.554;5.704;2022-10-31T08:06:34;45.38;;;30.90;;
50495;SDS011;38806;51.554;5.704;2022-10-31T08:08:34;50.35;;;28.25;;
50495;SDS011;38806;51.554;5.704;2022-10-31T08:10:35;42.70;;;27.05;;
50495;SDS011;38806;51.554;5.704;2022-10-31T08:12:36;43.55;;;28.60;;
50495;SDS011;38806;51.554;5.704;2022-10-31T08:14:36;58.20;;;30.88;;
50495;SDS011;38806;51.554;5.704;2022-10-31T08:16:36;50.72;;;30.25;;
50495;SDS011;38806;51.554;5.704;2022-10-31T08:18:37;43.10;;;27.80;;
50495;SDS011;38806;51.554;5.704;2022-10-31T08:20:37;48.25;;;28.85;;
50495;SDS011;38806;51.554;5.704;2022-10-31T08:22:38;38.70;;;26.27;;
50495;SDS011;38806;51.554;5.704;2022-10-31T08:24:38;49.05;;;28.30;;
50495;SDS011;38806;51.554;5.704;2022-10-31T08:26:38;36.33;;;24.05;;
50495;SDS011;38806;51.554;5.704;2022-10-31T08:28:38;43.83;;;26.13;;
50495;SDS011;38806;51.554;5.704;2022-10-31T08:30:39;39.15;;;27.08;;
50495;SDS011;38806;51.554;5.704;2022-10-31T08:32:40;38.63;;;25.70;;
50495;SDS011;38806;51.554;5.704;2022-10-31T08:34:40;33.42;;;23.02;;
50495;SDS011;38806;51.554;5.704;2022-10-31T08:36:41;32.42;;;22.42;;
50495;SDS011;38806;51.554;5.704;2022-10-31T08:38:45;36.35;;;23.35;;
50495;SDS011;38806;51.554;5.704;2022-10-31T08:40:47;30.48;;;22.13;;
50495;SDS011;38806;51.554;5.704;2022-10-31T08:42:54;32.13;;;22.25;;
50495;SDS011;38806;51.554;5.704;2022-10-31T08:45:05;29.97;;;20.87;;
50495;SDS011;38806;51.554;5.704;2022-10-31T08:47:06;31.13;;;20.40;;
50495;SDS011;38806;51.554;5.704;2022-10-31T08:49:06;33.05;;;23.25;;
50495;SDS011;38806;51.554;5.704;2022-10-31T08:51:07;33.70;;;22.55;;
50495;SDS011;38806;51.554;5.704;2022-10-31T08:53:15;40.13;;;22.77;;
50495;SDS011;38806;51.554;5.704;2022-10-31T08:55:18;27.88;;;22.02;;
50495;SDS011;38806;51.554;5.704;2022-10-31T08:57:18;31.83;;;22.38;;
50495;SDS011;38806;51.554;5.704;2022-10-31T08:59:18;36.38;;;23.25;;
50495;SDS011;38806;51.554;5.704;2022-10-31T09:01:18;36.80;;;25.50;;
50495;SDS011;38806;51.554;5.704;2022-10-31T09:03:23;36.25;;;25.10;;
50495;SDS011;38806;51.554;5.704;2022-10-31T09:05:24;44.42;;;25.85;;
50495;SDS011;38806;51.554;5.704;2022-10-31T09:07:25;42.22;;;26.45;;
50495;SDS011;38806;51.554;5.704;2022-10-31T09:09:25;42.92;;;28.50;;
50495;SDS011;38806;51.554;5.704;2022-10-31T09:11:26;38.65;;;26.30;;
50495;SDS011;38806;51.554;5.704;2022-10-31T09:13:26;41.85;;;27.55;;
50495;SDS011;38806;51.554;5.704;2022-10-31T09:15:27;44.20;;;28.92;;
50495;SDS011;38806;51.554;5.704;2022-10-31T09:17:28;41.30;;;29.00;;
50495;SDS011;38806;51.554;5.704;2022-10-31T09:19:29;46.70;;;29.63;;
50495;SDS011;38806;51.554;5.704;2022-10-31T09:21:29;41.03;;;26.95;;
50495;SDS011;38806;51.554;5.704;2022-10-31T09:23:29;48.80;;;30.40;;
50495;SDS011;38806;51.554;5.704;2022-10-31T09:25:30;42.90;;;28.27;;
50495;SDS011;38806;51.554;5.704;2022-10-31T09:27:30;43.28;;;29.60;;
50495;SDS011;38806;51.554;5.704;2022-10-31T09:29:30;41.65;;;28.77;;
50495;SDS011;38806;51.554;5.704;2022-10-31T09:31:31;40.70;;;27.67;;
50495;SDS011;38806;51.554;5.704;2022-10-31T09:33:31;36.25;;;27.35;;
50495;SDS011;38806;51.554;5.704;2022-10-31T09:35:31;38.63;;;26.92;;
50495;SDS011;38806;51.554;5.704;2022-10-31T09:37:32;40.95;;;27.55;;
50495;SDS011;38806;51.554;5.704;2022-10-31T09:39:32;45.15;;;26.33;;
50495;SDS011;38806;51.554;5.704;2022-10-31T09:50:56;45.40;;;28.60;;
50495;SDS011;38806;51.554;5.704;2022-10-31T09:53:04;41.33;;;28.40;;
50495;SDS011;38806;51.554;5.704;2022-10-31T09:55:16;40.63;;;26.80;;
50495;SDS011;38806;51.554;5.704;2022-10-31T09:57:23;39.95;;;26.98;;
50495;SDS011;38806;51.554;5.704;2022-10-31T09:59:31;41.65;;;28.23;;
50495;SDS011;38806;51.554;5.704;2022-10-31T10:01:48;42.03;;;28.58;;
50495;SDS011;38806;51.554;5.704;2022-10-31T10:03:55;42.70;;;30.00;;
50495;SDS011;38806;51.554;5.704;2022-10-31T10:06:04;38.30;;;29.53;;
50495;SDS011;38806;51.554;5.704;2022-10-31T10:10:20;37.42;;;26.00;;
50495;SDS011;38806;51.554;5.704;2022-10-31T10:19:53;34.78;;;25.83;;
50495;SDS011;38806;51.554;5.704;2022-10-31T10:30:26;35.42;;;25.38;;
50495;SDS011;38806;51.554;5.704;2022-10-31T10:37:31;34.83;;;25.08;;
50495;SDS011;38806;51.554;5.704;2022-10-31T10:39:43;37.78;;;26.75;;
50495;SDS011;38806;51.554;5.704;2022-10-31T10:41:47;35.55;;;25.27;;
50495;SDS011;38806;51.554;5.704;2022-10-31T10:44:08;35.65;;;23.65;;
50495;SDS011;38806;51.554;5.704;2022-10-31T10:46:14;38.22;;;25.40;;
50495;SDS011;38806;51.554;5.704;2022-10-31T10:48:41;35.08;;;23.95;;
50495;SDS011;38806;51.554;5.704;2022-10-31T10:50:50;41.20;;;25.48;;
50495;SDS011;38806;51.554;5.704;2022-10-31T10:59:53;29.67;;;23.20;;
50495;SDS011;38806;51.554;5.704;2022-10-31T11:01:54;30.55;;;22.85;;
50495;SDS011;38806;51.554;5.704;2022-10-31T11:03:55;44.85;;;25.10;;
50495;SDS011;38806;51.554;5.704;2022-10-31T11:05:56;35.30;;;23.95;;
50495;SDS011;38806;51.554;5.704;2022-10-31T11:08:02;32.58;;;24.38;;
50495;SDS011;38806;51.554;5.704;2022-10-31T11:10:11;36.28;;;24.27;;
50495;SDS011;38806;51.554;5.704;2022-10-31T11:14:28;35.85;;;24.92;;
50495;SDS011;38806;51.554;5.704;2022-10-31T11:18:32;33.33;;;23.38;;
50495;SDS011;38806;51.554;5.704;2022-10-31T11:20:35;28.95;;;20.73;;
50495;SDS011;38806;51.554;5.704;2022-10-31T11:22:36;30.75;;;21.77;;
50495;SDS011;38806;51.554;5.704;2022-10-31T11:24:42;31.25;;;23.05;;
50495;SDS011;38806;51.554;5.704;2022-10-31T11:26:43;37.47;;;25.20;;
50495;SDS011;38806;51.554;5.704;2022-10-31T11:28:55;33.17;;;23.10;;
50495;SDS011;38806;51.554;5.704;2022-10-31T11:30:57;35.88;;;21.83;;
50495;SDS011;38806;51.554;5.704;2022-10-31T11:32:59;35.03;;;25.65;;
50495;SDS011;38806;51.554;5.704;2022-10-31T11:35:00;31.55;;;21.48;;
50495;SDS011;38806;51.554;5.704;2022-10-31T11:39:15;34.30;;;23.75;;
50495;SDS011;38806;51.554;5.704;2022-10-31T11:43:27;30.70;;;20.98;;
50495;SDS011;38806;51.554;5.704;2022-10-31T11:45:33;30.05;;;20.00;;
50495;SDS011;38806;51.554;5.704;2022-10-31T11:47:34;34.00;;;21.80;;
50495;SDS011;38806;51.554;5.704;2022-10-31T11:51:36;27.13;;;19.20;;
50495;SDS011;38806;51.554;5.704;2022-10-31T11:53:37;41.22;;;20.73;;
50495;SDS011;38806;51.554;5.704;2022-10-31T11:55:38;27.60;;;20.20;;
50495;SDS011;38806;51.554;5.704;2022-10-31T11:57:49;24.50;;;17.15;;
50495;SDS011;38806;51.554;5.704;2022-10-31T11:59:52;31.95;;;18.83;;
50495;SDS011;38806;51.554;5.704;2022-10-31T12:01:55;28.50;;;17.90;;
50495;SDS011;38806;51.554;5.704;2022-10-31T12:04:06;30.73;;;18.23;;
50495;SDS011;38806;51.554;5.704;2022-10-31T12:06:11;24.02;;;18.60;;
50495;SDS011;38806;51.554;5.704;2022-10-31T12:08:17;30.75;;;19.45;;
50495;SDS011;38806;51.554;5.704;2022-10-31T12:10:19;28.17;;;18.70;;
50495;SDS011;38806;51.554;5.704;2022-10-31T12:12:35;24.75;;;17.08;;
50495;SDS011;38806;51.554;5.704;2022-10-31T12:15:00;26.40;;;17.85;;
50495;SDS011;38806;51.554;5.704;2022-10-31T12:17:17;28.17;;;18.58;;
50495;SDS011;38806;51.554;5.704;2022-10-31T12:22:11;27.85;;;16.77;;
50495;SDS011;38806;51.554;5.704;2022-10-31T12:24:32;26.17;;;17.23;;
50495;SDS011;38806;51.554;5.704;2022-10-31T12:54:20;22.30;;;14.07;;
50495;SDS011;38806;51.554;5.704;2022-10-31T12:58:55;20.67;;;13.25;;
50495;SDS011;38806;51.554;5.704;2022-10-31T13:01:24;29.45;;;12.90;;
50495;SDS011;38806;51.554;5.704;2022-10-31T13:03:32;19.58;;;13.68;;
50495;SDS011;38806;51.554;5.704;2022-10-31T13:05:43;23.08;;;14.20;;
50495;SDS011;38806;51.554;5.704;2022-10-31T13:10:03;22.48;;;13.35;;
50495;SDS011;38806;51.554;5.704;2022-10-31T13:12:11;22.30;;;12.98;;
50495;SDS011;38806;51.554;5.704;2022-10-31T13:14:35;23.63;;;13.00;;
50495;SDS011;38806;51.554;5.704;2022-10-31T13:16:43;21.98;;;13.18;;
50495;SDS011;38806;51.554;5.704;2022-10-31T13:20:51;22.52;;;14.50;;
50495;SDS011;38806;51.554;5.704;2022-10-31T13:22:56;26.42;;;13.43;;
50495;SDS011;38806;51.554;5.704;2022-10-31T13:25:09;22.05;;;13.45;;
50495;SDS011;38806;51.554;5.704;2022-10-31T13:27:17;20.23;;;14.10;;
50495;SDS011;38806;51.554;5.704;2022-10-31T13:31:33;22.30;;;14.20;;
50495;SDS011;38806;51.554;5.704;2022-10-31T13:40:51;21.73;;;15.02;;
50495;SDS011;38806;51.554;5.704;2022-10-31T13:43:06;32.70;;;16.77;;
50495;SDS011;38806;51.554;5.704;2022-10-31T13:45:14;24.85;;;14.38;;
50495;SDS011;38806;51.554;5.704;2022-10-31T13:51:29;24.05;;;15.10;;
50495;SDS011;38806;51.554;5.704;2022-10-31T13:53:44;22.23;;;14.05;;
50495;SDS011;38806;51.554;5.704;2022-10-31T13:56:02;21.27;;;15.18;;
50495;SDS011;38806;51.554;5.704;2022-10-31T13:58:26;21.23;;;14.38;;
50495;SDS011;38806;51.554;5.704;2022-10-31T14:00:28;22.20;;;16.35;;
50495;SDS011;38806;51.554;5.704;2022-10-31T14:02:33;23.48;;;15.10;;
50495;SDS011;38806;51.554;5.704;2022-10-31T14:04:36;26.83;;;15.40;;
50495;SDS011;38806;51.554;5.704;2022-10-31T14:09:05;25.88;;;14.48;;
50495;SDS011;38806;51.554;5.704;2022-10-31T14:11:20;26.83;;;16.13;;
50495;SDS011;38806;51.554;5.704;2022-10-31T14:13:27;28.50;;;15.27;;
50495;SDS011;38806;51.554;5.704;2022-10-31T14:15:32;25.23;;;17.77;;